Mulbarton, United Kingdom
Current Conditions -  °F | °C
As of 4:20 PM on Wednesday 26 Nov 2014 (Local Time) from EGSH Reporting Station
Drizzle Drizzle  
Wind Chill: 46°   Ceiling: 400
Heat Index: 48°   Visibility: 1.5mi
Dew Point: 48°   Wind: 5mph
Humidity: 100%   Direction: 90°E
Pressure: 29.83"   Gusts: NA
Location:  52.56°N, 1.23°E
Report Text: EGSH 261620Z 09004KT 2500 -DZ BR OVC004 09/09 Q1010
Loading
Personal Weather Stations






























Interactive Weather Map New forecast layout! Learn more

10-Day Weather Forecast

Advertisements
Track Severe Weather on mobile